createdAt,value
2019-05-16T00:02:45.581Z,12.74
2019-05-16T00:06:09.001Z,12.88
2019-05-16T00:09:32.315Z,12.73
2019-05-16T00:12:55.672Z,12.64
2019-05-16T00:16:19.619Z,12.60
2019-05-16T00:19:42.762Z,12.50
2019-05-16T00:23:07.918Z,12.54
2019-05-16T00:26:31.025Z,12.43
2019-05-16T00:29:54.363Z,12.46
2019-05-16T00:33:18.359Z,12.26
2019-05-16T00:36:41.855Z,12.23
2019-05-16T00:40:05.532Z,12.19
2019-05-16T00:43:29.258Z,12.26
2019-05-16T00:46:52.541Z,12.14
2019-05-16T00:50:18.277Z,12.27
2019-05-16T00:53:41.820Z,12.27
2019-05-16T00:57:08.328Z,12.29
2019-05-16T01:00:49.786Z,12.23
2019-05-16T01:04:13.770Z,12.35
2019-05-16T01:07:39.159Z,12.20
2019-05-16T01:11:02.093Z,12.30
2019-05-16T01:14:25.798Z,12.27
2019-05-16T01:17:48.938Z,12.32
2019-05-16T01:21:12.527Z,12.30
2019-05-16T01:24:35.667Z,12.36
2019-05-16T01:27:58.940Z,12.21
2019-05-16T01:31:22.204Z,12.12
2019-05-16T01:34:45.508Z,12.06
2019-05-16T01:38:08.800Z,12.22
2019-05-16T01:41:31.948Z,12.16
2019-05-16T01:44:55.089Z,12.16
2019-05-16T01:48:19.203Z,12.25
2019-05-16T01:51:42.918Z,12.19
2019-05-16T01:55:08.324Z,12.16
2019-05-16T01:58:32.698Z,12.19
2019-05-16T02:02:00.616Z,12.14
2019-05-16T02:05:21.358Z,11.97
2019-05-16T02:08:44.806Z,11.99
2019-05-16T02:12:10.678Z,12.12
2019-05-16T02:15:33.141Z,11.97
2019-05-16T02:18:56.323Z,12.05
2019-05-16T02:22:20.281Z,12.13
2019-05-16T02:25:43.445Z,12.11
2019-05-16T02:29:06.891Z,12.06
2019-05-16T02:32:31.284Z,11.99
2019-05-16T02:35:55.749Z,11.93
2019-05-16T02:39:21.224Z,12.06
2019-05-16T02:42:44.442Z,12.21
2019-05-16T02:46:07.732Z,12.47
2019-05-16T02:49:34.092Z,12.47
2019-05-16T02:52:56.803Z,12.61
2019-05-16T02:56:21.153Z,12.81
2019-05-16T02:59:44.931Z,12.76
2019-05-16T03:03:11.658Z,12.71
2019-05-16T03:06:34.598Z,12.87
2019-05-16T03:10:01.530Z,12.84
2019-05-16T03:13:23.578Z,12.76
2019-05-16T03:16:50.586Z,12.81
2019-05-16T03:20:13.977Z,12.98
2019-05-16T03:23:37.385Z,13.07
2019-05-16T03:27:01.571Z,13.25
2019-05-16T03:30:25.181Z,13.13
2019-05-16T03:33:51.992Z,13.22
2019-05-16T03:37:14.584Z,13.17
2019-05-16T03:40:41.026Z,13.20
2019-05-16T03:44:03.212Z,13.25
2019-05-16T03:47:26.381Z,13.22
2019-05-16T03:50:50.806Z,13.15
2019-05-16T03:54:14.392Z,13.03
2019-05-16T03:57:37.591Z,13.02
2019-05-16T04:01:02.358Z,13.06
2019-05-16T04:04:25.965Z,13.04
2019-05-16T04:07:51.594Z,13.13
2019-05-16T04:11:18.236Z,13.15
2019-05-16T04:14:40.931Z,13.32
2019-05-16T04:18:04.682Z,13.44
2019-05-16T04:21:31.901Z,13.31
2019-05-16T04:24:53.031Z,13.23
2019-05-16T04:28:16.167Z,13.33
2019-05-16T04:31:41.314Z,13.42
2019-05-16T04:35:06.110Z,13.47
2019-05-16T04:38:39.638Z,13.35
2019-05-16T04:41:54.475Z,13.26
2019-05-16T04:45:20.920Z,13.40
2019-05-16T04:48:43.004Z,13.57
2019-05-16T04:52:06.330Z,13.57
2019-05-16T04:55:31.679Z,13.35
2019-05-16T04:58:54.963Z,13.65
2019-05-16T05:02:21.053Z,13.69
2019-05-16T05:05:43.398Z,13.71
2019-05-16T05:09:07.422Z,13.66
2019-05-16T05:12:31.746Z,13.86
2019-05-16T05:15:55.366Z,13.64
2019-05-16T05:19:20.232Z,13.64
2019-05-16T05:22:43.765Z,13.88
2019-05-16T05:26:07.266Z,13.82
2019-05-16T05:29:30.803Z,13.91
2019-05-16T05:38:31.644Z,13.74
2019-05-16T05:42:33.290Z,13.49
2019-05-16T05:46:01.386Z,13.66
2019-05-16T05:49:24.548Z,13.50
2019-05-16T05:52:50.525Z,13.27
2019-05-16T05:56:13.455Z,13.62
2019-05-16T05:59:36.891Z,13.70
2019-05-16T06:17:24.731Z,14.53
2019-05-16T06:20:47.982Z,14.54
2019-05-16T06:24:11.325Z,14.59
2019-05-16T06:27:34.929Z,14.97
2019-05-16T06:31:01.399Z,15.21
2019-05-16T06:34:23.417Z,15.52
2019-05-16T06:37:46.714Z,15.26
2019-05-16T06:41:10.682Z,15.52
2019-05-16T06:44:35.231Z,15.60
2019-05-16T06:48:00.637Z,15.38
2019-05-16T06:51:24.017Z,15.43
2019-05-16T06:54:49.943Z,15.22
2019-05-16T06:58:12.539Z,15.33
2019-05-16T07:01:35.786Z,15.57
2019-05-16T07:05:01.117Z,15.19
2019-05-16T07:08:24.586Z,15.38
2019-05-16T07:11:50.308Z,15.16
2019-05-16T07:15:15.531Z,15.19
2019-05-16T07:18:40.117Z,15.13
2019-05-16T07:22:03.696Z,15.13
2019-05-16T07:25:27.058Z,14.39
2019-05-16T07:28:51.587Z,15.01
2019-05-16T07:32:15.091Z,15.06
2019-05-16T07:35:40.144Z,15.16
2019-05-16T07:39:05.081Z,15.07
2019-05-16T07:42:30.796Z,15.38
2019-05-16T07:45:54.342Z,15.21
2019-05-16T07:49:19.652Z,15.52
2019-05-16T07:52:42.690Z,15.58
2019-05-16T07:56:05.821Z,15.52
2019-05-16T07:59:30.063Z,15.06
2019-05-16T08:02:53.436Z,15.48
2019-05-16T08:06:16.709Z,15.41
2019-05-16T08:09:40.374Z,15.53
2019-05-16T08:13:03.774Z,15.27
2019-05-16T08:16:27.114Z,15.22
2019-05-16T08:19:50.940Z,15.09
2019-05-16T08:23:14.326Z,15.18
2019-05-16T08:30:04.001Z,14.98
2019-05-16T08:33:27.323Z,15.02
2019-05-16T08:40:16.086Z,14.68
2019-05-16T08:43:41.441Z,14.57
2019-05-16T08:47:05.859Z,14.90
2019-05-16T08:50:11.102Z,15.16
2019-05-16T08:50:34.744Z,15.04
2019-05-16T08:53:54.948Z,15.11
2019-05-16T08:57:27.551Z,15.08
2019-05-16T09:00:43.830Z,15.02
2019-05-16T09:04:07.107Z,14.68
2019-05-16T09:07:31.865Z,15.01
2019-05-16T09:10:11.000Z,14.43
2019-05-16T09:11:02.086Z,15.12
2019-05-16T09:14:21.385Z,15.30
2019-05-16T09:17:47.260Z,15.40
2019-05-16T09:21:09.791Z,15.54
2019-05-16T09:24:33.097Z,15.39
2019-05-16T09:27:57.009Z,15.89
2019-05-16T09:31:20.691Z,15.61
2019-05-16T09:34:44.002Z,16.01
2019-05-16T09:38:07.323Z,16.39
2019-05-16T09:41:46.378Z,16.57
2019-05-16T09:44:57.731Z,16.89
2019-05-16T09:48:20.973Z,17.20
2019-05-16T09:51:46.515Z,17.52
2019-05-16T09:55:09.916Z,17.54
2019-05-16T09:58:33.331Z,18.40
2019-05-16T10:01:57.267Z,18.19
2019-05-16T10:05:21.428Z,18.62
2019-05-16T10:08:46.433Z,19.47
2019-05-16T10:12:15.218Z,19.80
2019-05-16T10:15:37.621Z,19.43
2019-05-16T10:19:00.522Z,18.94
2019-05-16T10:22:24.177Z,19.41
2019-05-16T10:25:48.208Z,19.57
2019-05-16T10:29:11.670Z,19.65
2019-05-16T10:32:36.501Z,19.44
2019-05-16T10:36:00.499Z,19.75
2019-05-16T10:39:23.771Z,19.51
2019-05-16T10:42:47.244Z,20.33
2019-05-16T10:46:11.155Z,20.58
2019-05-16T10:49:38.796Z,20.69
2019-05-16T10:53:22.604Z,20.60
2019-05-16T10:56:25.239Z,20.11
2019-05-16T11:00:05.414Z,20.75
2019-05-16T11:03:13.859Z,21.67
2019-05-16T11:06:37.367Z,23.64
2019-05-16T11:10:03.521Z,23.73
2019-05-16T11:13:27.998Z,24.57
2019-05-16T11:16:52.163Z,25.00
2019-05-16T11:20:20.343Z,27.43
2019-05-16T11:23:43.708Z,25.26
2019-05-16T11:27:07.490Z,24.66
2019-05-16T11:30:31.071Z,24.79
2019-05-16T11:33:57.308Z,23.97
2019-05-16T11:37:19.597Z,22.08
2019-05-16T11:40:42.892Z,23.04
2019-05-16T11:44:06.764Z,22.63
2019-05-16T11:47:30.185Z,22.31
2019-05-16T11:50:53.390Z,23.39
2019-05-16T11:54:16.918Z,23.78
2019-05-16T11:57:40.398Z,24.78
2019-05-16T12:01:04.073Z,25.34
2019-05-16T12:04:30.626Z,23.57
2019-05-16T12:07:56.978Z,23.59
2019-05-16T12:11:18.936Z,22.16
2019-05-16T12:14:42.391Z,22.61
2019-05-16T12:18:08.614Z,22.09
2019-05-16T12:21:32.042Z,23.02
2019-05-16T12:24:57.407Z,22.90
2019-05-16T12:28:20.734Z,22.29
2019-05-16T12:31:55.323Z,22.30
2019-05-16T12:35:10.136Z,21.86
2019-05-16T12:38:33.395Z,22.62
2019-05-16T12:41:59.413Z,23.26
2019-05-16T12:45:21.743Z,23.19
2019-05-16T12:48:47.240Z,22.76
2019-05-16T12:52:10.178Z,22.88
2019-05-16T12:55:33.514Z,23.83
2019-05-16T12:58:57.433Z,25.02
2019-05-16T13:02:21.884Z,24.22
2019-05-16T13:05:47.557Z,25.42
2019-05-16T13:09:10.273Z,25.12
2019-05-16T13:12:33.651Z,26.08
2019-05-16T13:15:57.961Z,24.99
2019-05-16T13:19:21.263Z,25.31
2019-05-16T13:22:47.144Z,25.82
2019-05-16T13:26:09.607Z,24.91
2019-05-16T13:29:32.957Z,23.98
2019-05-16T13:32:56.589Z,23.65
2019-05-16T13:36:20.075Z,24.18
2019-05-16T13:39:43.668Z,23.67
2019-05-16T13:43:09.580Z,22.60
2019-05-16T13:46:31.963Z,22.51
2019-05-16T13:49:55.328Z,22.30
2019-05-16T13:53:18.715Z,21.93
2019-05-16T13:56:41.910Z,22.80
2019-05-16T14:00:07.709Z,24.18
2019-05-16T14:03:32.090Z,24.38
2019-05-16T14:06:58.614Z,22.40
2019-05-16T14:10:20.589Z,21.60
2019-05-16T14:13:43.800Z,21.29
2019-05-16T14:17:13.959Z,23.04
2019-05-16T14:20:32.687Z,23.74
2019-05-16T14:23:56.893Z,24.10
2019-05-16T14:27:20.479Z,23.56
2019-05-16T14:30:46.571Z,22.91
2019-05-16T14:34:09.568Z,22.99
2019-05-16T14:37:33.541Z,22.81
2019-05-16T14:40:57.381Z,22.58
2019-05-16T14:44:21.411Z,21.85
2019-05-16T14:47:47.312Z,21.32
2019-05-16T14:51:10.182Z,21.41
2019-05-16T14:54:33.368Z,20.55
2019-05-16T14:57:56.832Z,20.71
2019-05-16T15:01:20.152Z,20.02
2019-05-16T15:04:43.858Z,20.22
2019-05-16T15:08:08.678Z,20.07
2019-05-16T15:11:32.201Z,20.07
2019-05-16T15:14:58.688Z,20.01
2019-05-16T15:18:20.713Z,19.88
2019-05-16T15:21:44.071Z,20.05
2019-05-16T15:25:08.177Z,19.54
2019-05-16T15:28:33.197Z,19.83
2019-05-16T15:31:57.371Z,20.30
2019-05-16T15:35:22.051Z,20.74
2019-05-16T15:38:47.248Z,19.91
2019-05-16T15:42:10.396Z,20.35
2019-05-16T15:45:43.479Z,20.11
2019-05-16T15:49:09.578Z,19.79
2019-05-16T15:52:31.335Z,19.41
2019-05-16T15:55:54.878Z,19.46
2019-05-16T15:59:18.481Z,20.05
2019-05-16T16:02:41.700Z,19.55
2019-05-16T16:06:06.815Z,20.06
2019-05-16T16:09:30.608Z,20.23
2019-05-16T16:12:56.888Z,20.07
2019-05-16T16:16:20.204Z,19.66
2019-05-16T16:19:43.472Z,19.58
2019-05-16T16:23:07.044Z,19.06
2019-05-16T16:26:31.649Z,18.92
2019-05-16T16:29:54.822Z,19.33
2019-05-16T16:33:25.517Z,19.08
2019-05-16T16:36:43.309Z,19.37
2019-05-16T16:40:11.089Z,19.13
2019-05-16T16:43:32.692Z,19.17
2019-05-16T16:46:57.308Z,19.18
2019-05-16T16:50:20.635Z,18.55
2019-05-16T16:53:43.788Z,18.48
2019-05-16T16:57:07.830Z,18.84
2019-05-16T17:00:31.629Z,18.77
2019-05-16T17:03:57.405Z,18.65
2019-05-16T17:07:20.410Z,18.80
2019-05-16T17:10:43.664Z,18.66
2019-05-16T17:14:07.019Z,18.84
2019-05-16T17:17:30.181Z,18.56
2019-05-16T17:20:53.567Z,18.47
2019-05-16T17:24:17.474Z,18.58
2019-05-16T17:27:40.802Z,18.38
2019-05-16T17:31:06.985Z,18.35
2019-05-16T17:34:29.773Z,18.79
2019-05-16T17:37:53.270Z,18.49
2019-05-16T17:41:16.931Z,18.12
2019-05-16T17:44:40.342Z,18.20
2019-05-16T17:48:04.033Z,18.07
2019-05-16T17:51:27.445Z,18.25
2019-05-16T17:54:53.268Z,18.06
2019-05-16T17:58:16.549Z,18.06
2019-05-16T18:01:43.020Z,17.96
2019-05-16T18:05:07.586Z,17.62
2019-05-16T18:08:50.005Z,17.60
2019-05-16T18:12:13.616Z,17.70
2019-05-16T18:15:37.030Z,17.53
2019-05-16T18:19:00.349Z,17.52
2019-05-16T18:22:23.611Z,17.59
2019-05-16T18:25:47.070Z,17.62
2019-05-16T18:29:10.889Z,17.70
2019-05-16T18:32:34.532Z,17.67
2019-05-16T18:35:58.132Z,17.36
2019-05-16T18:39:21.875Z,16.88
2019-05-16T18:42:47.398Z,17.27
2019-05-16T18:46:10.424Z,16.59
2019-05-16T18:49:36.586Z,16.96
2019-05-16T18:52:59.845Z,16.83
2019-05-16T18:56:23.516Z,17.05
2019-05-16T18:59:50.638Z,16.82
2019-05-16T19:03:16.469Z,16.54
2019-05-16T19:06:41.856Z,16.14
2019-05-16T19:10:07.813Z,15.77
2019-05-16T19:13:31.169Z,16.00
2019-05-16T19:17:02.266Z,15.63
2019-05-16T19:20:28.955Z,15.62
2019-05-16T19:23:52.683Z,15.39
2019-05-16T19:27:17.290Z,15.35
2019-05-16T19:30:40.920Z,14.88
2019-05-16T19:34:06.992Z,14.81
2019-05-16T19:37:30.685Z,14.76
2019-05-16T19:40:57.199Z,14.44
2019-05-16T19:44:23.424Z,14.61
2019-05-16T19:47:47.147Z,14.66
2019-05-16T19:51:11.092Z,14.76
2019-05-16T19:54:36.515Z,14.82
2019-05-16T19:58:00.361Z,14.75
2019-05-16T20:01:23.621Z,14.74
2019-05-16T20:04:49.284Z,14.65
2019-05-16T20:08:12.947Z,14.59
2019-05-16T20:11:37.000Z,14.47
2019-05-16T20:15:07.883Z,14.50
2019-05-16T20:18:27.347Z,14.48
2019-05-16T20:21:52.653Z,14.46
2019-05-16T20:25:16.535Z,14.58
2019-05-16T20:28:40.281Z,14.50
2019-05-16T20:32:03.563Z,14.61
2019-05-16T20:35:27.132Z,14.35
2019-05-16T20:38:51.203Z,14.18
2019-05-16T20:42:16.928Z,14.33
2019-05-16T20:45:39.949Z,14.01
2019-05-16T20:49:03.494Z,14.15
2019-05-16T20:52:26.966Z,14.33
2019-05-16T20:55:50.758Z,14.23
2019-05-16T20:59:14.013Z,14.36
2019-05-16T21:02:37.983Z,14.42
2019-05-16T21:06:01.518Z,14.15
2019-05-16T21:09:26.247Z,14.05
2019-05-16T21:12:49.910Z,14.42
2019-05-16T21:16:13.398Z,14.31
2019-05-16T21:19:39.258Z,14.40
2019-05-16T21:23:03.939Z,14.15
2019-05-16T21:26:28.542Z,14.15
2019-05-16T21:29:51.891Z,14.21
2019-05-16T21:33:18.448Z,13.99
2019-05-16T21:36:41.483Z,13.80
2019-05-16T21:40:07.994Z,13.85
2019-05-16T21:43:34.073Z,13.65
2019-05-16T21:46:57.849Z,13.75
2019-05-16T21:50:21.580Z,13.72
2019-05-16T21:53:46.819Z,13.74
2019-05-16T21:57:10.272Z,13.59
2019-05-16T22:00:41.753Z,13.47
2019-05-16T22:04:07.375Z,13.42
2019-05-16T22:07:33.420Z,13.41
2019-05-16T22:10:57.397Z,13.33
2019-05-16T22:14:29.234Z,13.20
2019-05-16T22:17:52.647Z,13.42
2019-05-16T22:21:16.740Z,13.41
2019-05-16T22:24:40.322Z,13.42
2019-05-16T22:28:03.653Z,13.16
2019-05-16T22:31:27.463Z,13.32
2019-05-16T22:34:50.735Z,13.43
2019-05-16T22:38:16.703Z,13.43
2019-05-16T22:41:39.707Z,13.36
2019-05-16T22:45:03.831Z,13.27
2019-05-16T22:48:28.094Z,13.20
2019-05-16T22:51:51.606Z,13.25
2019-05-16T22:55:17.456Z,13.22
2019-05-16T22:58:40.611Z,13.12
2019-05-16T23:02:11.024Z,13.16
2019-05-16T23:05:31.033Z,13.36
2019-05-16T23:08:56.251Z,13.34
2019-05-16T23:12:19.730Z,13.23
2019-05-16T23:15:43.341Z,13.42
2019-05-16T23:19:06.756Z,13.23
2019-05-16T23:22:30.296Z,13.36
2019-05-16T23:25:53.546Z,13.12
2019-05-16T23:29:17.398Z,13.41
2019-05-16T23:32:40.582Z,13.42
2019-05-16T23:36:03.875Z,13.36
2019-05-16T23:39:27.170Z,13.38
2019-05-16T23:42:50.396Z,13.41
2019-05-16T23:46:13.779Z,13.01
2019-05-16T23:49:41.800Z,13.20
2019-05-16T23:53:07.038Z,13.36
2019-05-16T23:56:29.996Z,13.51
2019-05-16T23:59:53.220Z,13.15
